This is the latest recevied weather packets stored in our database for station/object DL1ONI-13. If no packets are shown the sender has not sent any weather packets the latest 10 day(s).
| Time | Temp. | Humidity | Pressure | Rain* | Wind** | Luminosity | Snow |
|---|---|---|---|---|---|---|---|
| 1777221621 | 18.89° C | 25% | 1023.9 hPa | 0 mm | - | - | - |
| 1777220421 | 19.44° C | 25% | 1024 hPa | 0 mm | - | - | - |
| 1777219222 | 19.44° C | 25% | 1024.1 hPa | 0 mm | - | - | - |
| 1777217422 | 20.56° C | 25% | 1024.3 hPa | 0 mm | - | - | - |
| 1777216823 | 20.56° C | 25% | 1024.3 hPa | 0 mm | - | - | - |
| 1777216223 | 21.11° C | 25% | 1024.3 hPa | 0 mm | - | - | - |
| 1777214423 | 20.56° C | 25% | 1024.2 hPa | 0 mm | - | - | - |
| 1777210824 | 21.11° C | 25% | 1025.8 hPa | 0 mm | - | - | - |
| 1777210225 | 20.56° C | 25% | 1025.6 hPa | 0 mm | - | - | - |
| 1777207226 | 18.89° C | 28% | 1025.8 hPa | 0 mm | - | - | - |
| 1777205436 | 18.33° C | 27% | 1025.9 hPa | 0 mm | - | - | - |
| 1777200040 | 16.11° C | 30% | 1026.7 hPa | 0 mm | - | - | - |
| 1777195224 | 14.44° C | 32% | 1027.2 hPa | 0 mm | - | - | - |
| 1777191016 | 12.78° C | 34% | 1027.4 hPa | 0 mm | - | - | - |
| 1777188618 | 11.67° C | 36% | 1027.2 hPa | 0 mm | - | - | - |
| 1777187438 | 11.11° C | 36% | 1026.9 hPa | 0 mm | - | - | - |
| 1777185620 | 10° C | 37% | 1026.1 hPa | 0 mm | - | - | - |
| 1777185019 | 9.44° C | 39% | 1025.6 hPa | 0 mm | - | - | - |
| 1777179625 | 5° C | 48% | 1024.7 hPa | 0 mm | - | - | - |
| 1777177217 | 3.89° C | 47% | 1023.8 hPa | 0 mm | - | - | - |
| 1777176017 | 3.89° C | 45% | 1023 hPa | 0 mm | - | - | - |
| 1777174837 | 4.44° C | 45% | 1023.5 hPa | 0 mm | - | - | - |
| 1777172418 | 5.56° C | 39% | 1023.9 hPa | 0 mm | - | - | - |
| 1777169420 | 5.56° C | 39% | 1023.4 hPa | 0 mm | - | - | - |
| 1777162243 | 6.67° C | 36% | 1022.8 hPa | 0 mm | - | - | - |
* Rain latest hour (hover to see other rain measurements)
** Current wind speed in m/s (hover to see current wind gust speed)